createdAt,value
2023-01-11T00:05:46.868Z,89.40
2023-01-11T00:13:52.244Z,89.40
2023-01-11T00:22:00.172Z,88.80
2023-01-11T00:30:05.647Z,88.60
2023-01-11T00:38:33.681Z,88.70
2023-01-11T00:46:51.404Z,89.00
2023-01-11T00:54:59.388Z,89.00
2023-01-11T01:03:04.720Z,88.90
2023-01-11T01:11:12.902Z,88.90
2023-01-11T01:19:18.292Z,89.10
2023-01-11T01:27:26.235Z,89.70
2023-01-11T01:35:31.651Z,89.20
2023-01-11T01:44:00.939Z,89.20
2023-01-11T01:52:06.576Z,89.00
2023-01-11T02:00:15.828Z,89.70
2023-01-11T02:08:26.033Z,90.00
2023-01-11T02:16:34.085Z,89.80
2023-01-11T02:24:59.290Z,90.50
2023-01-11T02:33:18.322Z,90.40
2023-01-11T02:41:49.318Z,90.30
2023-01-11T02:50:04.395Z,90.10
2023-01-11T02:58:13.265Z,90.10
2023-01-11T03:06:24.249Z,89.80
2023-01-11T03:14:37.809Z,89.90
2023-01-11T03:22:55.173Z,90.00
2023-01-11T03:31:07.093Z,89.40
2023-01-11T03:39:23.406Z,88.80
2023-01-11T03:47:33.120Z,89.00
2023-01-11T03:55:43.629Z,88.80
2023-01-11T04:03:49.007Z,89.20
2023-01-11T04:11:56.860Z,89.60
2023-01-11T04:20:02.352Z,89.00
2023-01-11T04:28:10.391Z,89.60
2023-01-11T04:36:16.642Z,89.90
2023-01-11T04:44:24.675Z,89.10
2023-01-11T04:52:30.098Z,89.20
2023-01-11T05:00:38.167Z,89.70
2023-01-11T05:08:43.524Z,89.60
2023-01-11T05:16:51.876Z,89.20
2023-01-11T05:24:57.259Z,89.00
2023-01-11T05:33:05.242Z,89.20
2023-01-11T05:41:12.718Z,90.30
2023-01-11T05:49:20.931Z,90.00
2023-01-11T05:57:26.338Z,90.10
2023-01-11T06:05:38.827Z,91.00
2023-01-11T06:13:47.431Z,90.50
2023-01-11T06:21:56.332Z,90.30
2023-01-11T06:30:01.765Z,90.30
2023-01-11T06:38:11.216Z,90.50
2023-01-11T06:46:19.139Z,90.20
2023-01-11T06:54:28.806Z,90.20
2023-01-11T07:02:34.311Z,89.80
2023-01-11T07:10:44.106Z,89.60
2023-01-11T07:18:50.123Z,89.70
2023-01-11T07:27:01.397Z,89.60
2023-01-11T07:35:08.963Z,90.00
2023-01-11T07:43:20.173Z,90.60
2023-01-11T07:51:25.728Z,90.80
2023-01-11T07:59:33.975Z,90.40
2023-01-11T08:07:39.587Z,90.90
2023-01-11T08:15:48.282Z,90.50
2023-01-11T08:23:56.141Z,89.70
2023-01-11T08:32:04.676Z,89.80
2023-01-11T08:40:11.884Z,89.70
2023-01-11T08:48:19.975Z,89.80
2023-01-11T08:56:26.139Z,89.60
2023-01-11T09:04:34.324Z,88.40
2023-01-11T09:12:41.241Z,86.90
2023-01-11T09:20:49.287Z,86.90
2023-01-11T09:28:54.773Z,89.10
2023-01-11T09:37:04.814Z,88.20
2023-01-11T09:45:18.243Z,89.00
2023-01-11T09:53:32.329Z,84.70
2023-01-11T10:01:43.435Z,80.70
2023-01-11T10:19:04.626Z,65.80
2023-01-11T10:27:30.153Z,61.50
2023-01-11T10:36:02.983Z,63.20
2023-01-11T10:44:19.565Z,70.10
2023-01-11T10:52:35.309Z,70.40
2023-01-11T11:00:51.722Z,74.20
2023-01-11T11:09:03.368Z,77.20
2023-01-11T11:17:20.735Z,79.00
2023-01-11T11:25:33.209Z,79.20
2023-01-11T11:33:42.226Z,79.90
2023-01-11T11:41:52.432Z,78.80
2023-01-11T11:50:43.093Z,78.40
2023-01-11T11:58:50.015Z,75.70
2023-01-11T12:07:10.623Z,77.90
2023-01-11T12:15:29.052Z,78.80
2023-01-11T12:23:38.316Z,80.50
2023-01-11T12:32:13.376Z,80.50
2023-01-11T12:40:28.480Z,80.80
2023-01-11T12:49:00.318Z,80.50
2023-01-11T12:57:34.533Z,81.60
2023-01-11T13:05:55.386Z,80.70
2023-01-11T13:14:17.319Z,80.40
2023-01-11T13:22:28.009Z,80.40
2023-01-11T13:30:36.783Z,79.50
2023-01-11T13:38:46.094Z,79.40
2023-01-11T13:47:06.069Z,78.90
2023-01-11T13:55:32.739Z,79.40
2023-01-11T14:03:51.106Z,79.70
2023-01-11T14:12:04.584Z,79.80
2023-01-11T14:20:25.478Z,80.10
2023-01-11T14:28:55.170Z,81.20
2023-01-11T14:37:28.422Z,81.70
2023-01-11T14:45:52.466Z,82.90
2023-01-11T14:54:07.410Z,82.30
2023-01-11T15:02:28.939Z,82.60
2023-01-11T15:11:12.937Z,84.00
2023-01-11T15:19:27.712Z,84.10
2023-01-11T15:27:39.427Z,84.00
2023-01-11T15:35:45.553Z,84.00
2023-01-11T15:44:19.118Z,83.90
2023-01-11T15:52:57.110Z,84.50
2023-01-11T16:01:28.569Z,84.80
2023-01-11T16:10:07.031Z,85.00
2023-01-11T16:18:27.216Z,85.00
2023-01-11T16:26:32.607Z,84.70
2023-01-11T16:34:47.216Z,84.80
2023-01-11T16:42:58.601Z,84.60
2023-01-11T16:51:10.867Z,84.60
2023-01-11T16:59:26.822Z,84.80
2023-01-11T17:07:35.191Z,85.20
2023-01-11T17:15:53.254Z,85.60
2023-01-11T17:24:04.598Z,86.90
2023-01-11T17:32:16.093Z,90.10
2023-01-11T17:40:31.219Z,88.60
2023-01-11T17:48:37.559Z,88.40
2023-01-11T17:56:46.064Z,87.80
2023-01-11T18:05:01.323Z,86.90
2023-01-11T18:13:26.093Z,87.20
2023-01-11T18:21:42.380Z,87.10
2023-01-11T18:29:56.958Z,87.20
2023-01-11T18:38:02.668Z,86.90
2023-01-11T18:46:13.608Z,87.20
2023-01-11T18:54:20.373Z,87.20
2023-01-11T19:02:31.609Z,87.50
2023-01-11T19:10:37.480Z,87.60
2023-01-11T19:18:46.574Z,87.40
2023-01-11T19:26:52.703Z,87.50
2023-01-11T19:35:18.863Z,87.30
2023-01-11T19:43:24.279Z,87.10
2023-01-11T19:51:32.396Z,87.60
2023-01-11T19:59:37.963Z,87.90
2023-01-11T20:07:48.951Z,88.00
2023-01-11T20:15:55.471Z,88.80
2023-01-11T20:24:04.049Z,88.10
2023-01-11T20:32:31.125Z,88.00
2023-01-11T20:40:38.344Z,87.20
2023-01-11T20:48:44.171Z,87.70
2023-01-11T20:56:52.166Z,87.90
2023-01-11T21:04:57.528Z,87.90
2023-01-11T21:21:15.121Z,87.80
2023-01-11T21:29:22.998Z,87.80
2023-01-11T21:37:28.272Z,87.70
2023-01-11T21:45:36.284Z,87.80
2023-01-11T21:53:43.351Z,88.40
2023-01-11T22:01:51.687Z,88.40
2023-01-11T22:10:04.581Z,88.30
2023-01-11T22:18:13.067Z,88.80
2023-01-11T22:26:20.202Z,88.60
2023-01-11T22:34:28.233Z,88.60
2023-01-11T22:42:33.565Z,89.00
2023-01-11T22:50:50.991Z,89.40
2023-01-11T22:58:56.976Z,88.80
2023-01-11T23:07:04.908Z,88.80
2023-01-11T23:15:11.489Z,88.80
2023-01-11T23:23:19.427Z,88.60
2023-01-11T23:31:26.442Z,88.50
2023-01-11T23:39:34.370Z,88.20
2023-01-11T23:47:39.639Z,88.70
2023-01-11T23:55:47.679Z,88.30
